sensor_id;sensor_type;location;lat;lon;timestamp;P1;durP1;ratioP1;P2;durP2;ratioP2
72575;SDS011;60613;48.658;2.328;2023-04-03T06:02:36;3.10;;;1.53;;
72575;SDS011;60613;48.658;2.328;2023-04-03T06:05:02;4.45;;;1.45;;
72575;SDS011;60613;48.658;2.328;2023-04-03T06:07:28;4.63;;;1.83;;
72575;SDS011;60613;48.658;2.328;2023-04-03T06:09:54;4.18;;;1.60;;
72575;SDS011;60613;48.658;2.328;2023-04-03T06:12:21;4.30;;;1.83;;
72575;SDS011;60613;48.658;2.328;2023-04-03T06:14:48;4.23;;;1.63;;
72575;SDS011;60613;48.658;2.328;2023-04-03T06:17:16;3.72;;;1.70;;
72575;SDS011;60613;48.658;2.328;2023-04-03T06:19:43;4.38;;;1.75;;
72575;SDS011;60613;48.658;2.328;2023-04-03T06:22:09;4.30;;;1.70;;
72575;SDS011;60613;48.658;2.328;2023-04-03T06:24:36;4.32;;;1.70;;
72575;SDS011;60613;48.658;2.328;2023-04-03T06:27:02;3.17;;;1.50;;
72575;SDS011;60613;48.658;2.328;2023-04-03T06:29:28;2.97;;;1.50;;
72575;SDS011;60613;48.658;2.328;2023-04-03T06:31:54;3.50;;;1.50;;
72575;SDS011;60613;48.658;2.328;2023-04-03T06:34:20;4.90;;;1.67;;
72575;SDS011;60613;48.658;2.328;2023-04-03T06:36:46;4.13;;;1.50;;
72575;SDS011;60613;48.658;2.328;2023-04-03T06:39:16;4.07;;;1.60;;
72575;SDS011;60613;48.658;2.328;2023-04-03T06:41:45;3.70;;;1.47;;
72575;SDS011;60613;48.658;2.328;2023-04-03T06:44:10;3.80;;;1.50;;
72575;SDS011;60613;48.658;2.328;2023-04-03T06:46:38;4.30;;;1.77;;
72575;SDS011;60613;48.658;2.328;2023-04-03T06:49:04;4.50;;;1.50;;
72575;SDS011;60613;48.658;2.328;2023-04-03T06:51:32;3.70;;;1.50;;
72575;SDS011;60613;48.658;2.328;2023-04-03T06:53:58;3.58;;;1.40;;
72575;SDS011;60613;48.658;2.328;2023-04-03T06:56:25;3.63;;;1.45;;
72575;SDS011;60613;48.658;2.328;2023-04-03T06:58:51;2.90;;;1.42;;
72575;SDS011;60613;48.658;2.328;2023-04-03T07:01:19;4.20;;;1.60;;
72575;SDS011;60613;48.658;2.328;2023-04-03T07:03:46;3.55;;;1.42;;
72575;SDS011;60613;48.658;2.328;2023-04-03T07:06:16;3.90;;;1.50;;
72575;SDS011;60613;48.658;2.328;2023-04-03T07:08:43;3.95;;;1.40;;
72575;SDS011;60613;48.658;2.328;2023-04-03T07:11:10;3.90;;;1.50;;
72575;SDS011;60613;48.658;2.328;2023-04-03T07:13:36;3.03;;;1.40;;
72575;SDS011;60613;48.658;2.328;2023-04-03T07:16:03;4.10;;;1.48;;
72575;SDS011;60613;48.658;2.328;2023-04-03T07:18:30;4.05;;;1.50;;
72575;SDS011;60613;48.658;2.328;2023-04-03T07:20:57;3.25;;;1.40;;
72575;SDS011;60613;48.658;2.328;2023-04-03T07:23:22;4.85;;;1.60;;
72575;SDS011;60613;48.658;2.328;2023-04-03T07:25:49;3.37;;;1.47;;
72575;SDS011;60613;48.658;2.328;2023-04-03T07:28:16;9.35;;;3.30;;
72575;SDS011;60613;48.658;2.328;2023-04-03T07:33:17;7.72;;;4.28;;
72575;SDS011;60613;48.658;2.328;2023-04-03T07:35:44;9.25;;;4.40;;
72575;SDS011;60613;48.658;2.328;2023-04-03T07:38:10;8.07;;;4.20;;
72575;SDS011;60613;48.658;2.328;2023-04-03T07:40:36;8.70;;;5.00;;
72575;SDS011;60613;48.658;2.328;2023-04-03T07:43:03;8.80;;;4.90;;
72575;SDS011;60613;48.658;2.328;2023-04-03T07:45:30;8.43;;;4.63;;
72575;SDS011;60613;48.658;2.328;2023-04-03T07:47:56;8.18;;;4.32;;
72575;SDS011;60613;48.658;2.328;2023-04-03T07:50:22;9.00;;;4.20;;
72575;SDS011;60613;48.658;2.328;2023-04-03T07:52:48;7.25;;;3.83;;
72575;SDS011;60613;48.658;2.328;2023-04-03T07:55:15;7.32;;;3.75;;
72575;SDS011;60613;48.658;2.328;2023-04-03T07:57:41;8.23;;;3.78;;
72575;SDS011;60613;48.658;2.328;2023-04-03T08:00:07;7.97;;;3.37;;
72575;SDS011;60613;48.658;2.328;2023-04-03T08:02:34;6.47;;;2.47;;
72575;SDS011;60613;48.658;2.328;2023-04-03T08:05:00;5.57;;;2.13;;
72575;SDS011;60613;48.658;2.328;2023-04-03T08:07:26;5.68;;;2.17;;
72575;SDS011;60613;48.658;2.328;2023-04-03T08:09:51;6.17;;;1.93;;
72575;SDS011;60613;48.658;2.328;2023-04-03T08:12:17;6.10;;;2.00;;
72575;SDS011;60613;48.658;2.328;2023-04-03T08:14:43;6.15;;;1.95;;
72575;SDS011;60613;48.658;2.328;2023-04-03T08:17:08;5.27;;;1.70;;
72575;SDS011;60613;48.658;2.328;2023-04-03T08:19:37;5.53;;;1.70;;
72575;SDS011;60613;48.658;2.328;2023-04-03T08:22:03;5.15;;;1.70;;
72575;SDS011;60613;48.658;2.328;2023-04-03T08:24:30;4.63;;;1.73;;
72575;SDS011;60613;48.658;2.328;2023-04-03T08:26:56;4.85;;;1.77;;
72575;SDS011;60613;48.658;2.328;2023-04-03T08:29:22;4.28;;;1.60;;
72575;SDS011;60613;48.658;2.328;2023-04-03T08:31:48;9.27;;;1.80;;
72575;SDS011;60613;48.658;2.328;2023-04-03T08:34:15;6.45;;;1.83;;
72575;SDS011;60613;48.658;2.328;2023-04-03T08:36:41;4.40;;;1.60;;
72575;SDS011;60613;48.658;2.328;2023-04-03T08:39:07;5.65;;;1.70;;
72575;SDS011;60613;48.658;2.328;2023-04-03T08:49:39;5.65;;;1.80;;
72575;SDS011;60613;48.658;2.328;2023-04-03T08:52:09;5.57;;;1.63;;
72575;SDS011;60613;48.658;2.328;2023-04-03T08:54:41;5.33;;;1.70;;
72575;SDS011;60613;48.658;2.328;2023-04-03T08:57:12;4.00;;;1.50;;
72575;SDS011;60613;48.658;2.328;2023-04-03T08:59:38;3.83;;;1.50;;
72575;SDS011;60613;48.658;2.328;2023-04-03T09:02:18;3.65;;;1.40;;
72575;SDS011;60613;48.658;2.328;2023-04-03T09:04:51;5.20;;;1.50;;
72575;SDS011;60613;48.658;2.328;2023-04-03T09:07:28;4.93;;;1.53;;
72575;SDS011;60613;48.658;2.328;2023-04-03T09:09:59;6.55;;;1.50;;
72575;SDS011;60613;48.658;2.328;2023-04-03T09:12:29;4.15;;;1.30;;
72575;SDS011;60613;48.658;2.328;2023-04-03T09:22:51;3.60;;;1.30;;
72575;SDS011;60613;48.658;2.328;2023-04-03T09:25:31;4.72;;;1.70;;
72575;SDS011;60613;48.658;2.328;2023-04-03T09:28:01;3.28;;;1.52;;
72575;SDS011;60613;48.658;2.328;2023-04-03T09:30:27;5.80;;;1.60;;
72575;SDS011;60613;48.658;2.328;2023-04-03T09:32:55;4.13;;;1.13;;
72575;SDS011;60613;48.658;2.328;2023-04-03T09:35:29;3.15;;;1.10;;
72575;SDS011;60613;48.658;2.328;2023-04-03T09:41:20;3.80;;;1.50;;
72575;SDS011;60613;48.658;2.328;2023-04-03T09:43:40;2.97;;;1.20;;
72575;SDS011;60613;48.658;2.328;2023-04-03T09:46:31;3.60;;;1.10;;
72575;SDS011;60613;48.658;2.328;2023-04-03T09:48:59;3.90;;;1.20;;
72575;SDS011;60613;48.658;2.328;2023-04-03T09:51:27;3.53;;;1.30;;
72575;SDS011;60613;48.658;2.328;2023-04-03T09:53:54;3.53;;;1.15;;
72575;SDS011;60613;48.658;2.328;2023-04-03T09:56:22;3.10;;;1.40;;
72575;SDS011;60613;48.658;2.328;2023-04-03T09:58:52;3.53;;;1.27;;
72575;SDS011;60613;48.658;2.328;2023-04-03T10:01:41;3.75;;;1.33;;
72575;SDS011;60613;48.658;2.328;2023-04-03T10:04:21;4.35;;;1.38;;
72575;SDS011;60613;48.658;2.328;2023-04-03T10:06:49;3.55;;;1.20;;
72575;SDS011;60613;48.658;2.328;2023-04-03T10:09:22;3.13;;;1.15;;
72575;SDS011;60613;48.658;2.328;2023-04-03T10:14:57;10.52;;;1.20;;
72575;SDS011;60613;48.658;2.328;2023-04-03T10:17:29;4.40;;;1.23;;
72575;SDS011;60613;48.658;2.328;2023-04-03T10:20:37;4.72;;;1.30;;
72575;SDS011;60613;48.658;2.328;2023-04-03T10:39:09;4.00;;;1.30;;
72575;SDS011;60613;48.658;2.328;2023-04-03T10:44:42;4.03;;;1.50;;
72575;SDS011;60613;48.658;2.328;2023-04-03T10:52:42;4.45;;;1.40;;
72575;SDS011;60613;48.658;2.328;2023-04-03T10:58:00;4.30;;;1.10;;
72575;SDS011;60613;48.658;2.328;2023-04-03T11:00:35;3.33;;;1.13;;
72575;SDS011;60613;48.658;2.328;2023-04-03T11:03:14;4.18;;;1.10;;
72575;SDS011;60613;48.658;2.328;2023-04-03T11:05:50;4.25;;;1.30;;
72575;SDS011;60613;48.658;2.328;2023-04-03T11:10:59;3.60;;;1.10;;
72575;SDS011;60613;48.658;2.328;2023-04-03T11:13:38;3.13;;;1.10;;
72575;SDS011;60613;48.658;2.328;2023-04-03T11:16:08;4.30;;;1.23;;
72575;SDS011;60613;48.658;2.328;2023-04-03T11:18:37;2.88;;;1.20;;
72575;SDS011;60613;48.658;2.328;2023-04-03T11:21:27;2.25;;;0.98;;
72575;SDS011;60613;48.658;2.328;2023-04-03T11:23:56;3.30;;;1.00;;
72575;SDS011;60613;48.658;2.328;2023-04-03T11:26:25;2.87;;;0.93;;
72575;SDS011;60613;48.658;2.328;2023-04-03T11:29:06;3.30;;;1.10;;
72575;SDS011;60613;48.658;2.328;2023-04-03T11:34:44;3.17;;;1.00;;
72575;SDS011;60613;48.658;2.328;2023-04-03T11:37:16;3.58;;;1.00;;
72575;SDS011;60613;48.658;2.328;2023-04-03T11:39:57;3.73;;;1.30;;
72575;SDS011;60613;48.658;2.328;2023-04-03T11:47:56;3.53;;;1.20;;
72575;SDS011;60613;48.658;2.328;2023-04-03T11:50:30;4.20;;;1.10;;
72575;SDS011;60613;48.658;2.328;2023-04-03T11:53:10;2.40;;;0.80;;
72575;SDS011;60613;48.658;2.328;2023-04-03T11:55:53;2.47;;;0.95;;
72575;SDS011;60613;48.658;2.328;2023-04-03T11:58:24;2.67;;;0.90;;
72575;SDS011;60613;48.658;2.328;2023-04-03T12:00:58;3.42;;;1.00;;
72575;SDS011;60613;48.658;2.328;2023-04-03T12:06:42;2.93;;;1.00;;
72575;SDS011;60613;48.658;2.328;2023-04-03T12:08:53;3.97;;;0.90;;
72575;SDS011;60613;48.658;2.328;2023-04-03T12:21:21;2.35;;;0.80;;
72575;SDS011;60613;48.658;2.328;2023-04-03T12:26:48;3.97;;;1.17;;
72575;SDS011;60613;48.658;2.328;2023-04-03T12:32:19;1.93;;;0.90;;
72575;SDS011;60613;48.658;2.328;2023-04-03T12:46:39;2.60;;;0.90;;
72575;SDS011;60613;48.658;2.328;2023-04-03T12:51:53;2.50;;;1.02;;
72575;SDS011;60613;48.658;2.328;2023-04-03T12:54:22;1.90;;;0.90;;
72575;SDS011;60613;48.658;2.328;2023-04-03T12:57:11;2.88;;;0.90;;
72575;SDS011;60613;48.658;2.328;2023-04-03T12:59:57;2.50;;;0.80;;
72575;SDS011;60613;48.658;2.328;2023-04-03T13:02:27;2.28;;;0.80;;
72575;SDS011;60613;48.658;2.328;2023-04-03T13:04:56;2.03;;;0.88;;
72575;SDS011;60613;48.658;2.328;2023-04-03T13:07:28;2.70;;;1.10;;
72575;SDS011;60613;48.658;2.328;2023-04-03T13:10:03;3.35;;;1.13;;
72575;SDS011;60613;48.658;2.328;2023-04-03T13:12:46;2.13;;;0.90;;
72575;SDS011;60613;48.658;2.328;2023-04-03T13:15:29;2.47;;;0.85;;
72575;SDS011;60613;48.658;2.328;2023-04-03T13:18:04;3.22;;;1.10;;
72575;SDS011;60613;48.658;2.328;2023-04-03T13:20:31;3.35;;;1.00;;
72575;SDS011;60613;48.658;2.328;2023-04-03T13:23:02;2.07;;;0.90;;
72575;SDS011;60613;48.658;2.328;2023-04-03T13:25:34;2.22;;;0.80;;
72575;SDS011;60613;48.658;2.328;2023-04-03T13:28:03;2.70;;;0.95;;
72575;SDS011;60613;48.658;2.328;2023-04-03T13:30:35;2.78;;;0.93;;
72575;SDS011;60613;48.658;2.328;2023-04-03T13:33:03;2.20;;;0.90;;
72575;SDS011;60613;48.658;2.328;2023-04-03T13:35:33;2.30;;;0.80;;
72575;SDS011;60613;48.658;2.328;2023-04-03T13:38:19;2.88;;;1.10;;
72575;SDS011;60613;48.658;2.328;2023-04-03T13:40:49;3.08;;;1.00;;
72575;SDS011;60613;48.658;2.328;2023-04-03T13:43:20;2.15;;;0.80;;
72575;SDS011;60613;48.658;2.328;2023-04-03T13:46:33;2.78;;;0.90;;
72575;SDS011;60613;48.658;2.328;2023-04-03T13:48:51;2.30;;;0.80;;
72575;SDS011;60613;48.658;2.328;2023-04-03T13:51:23;3.17;;;0.90;;
72575;SDS011;60613;48.658;2.328;2023-04-03T13:56:35;3.88;;;1.08;;
72575;SDS011;60613;48.658;2.328;2023-04-03T14:06:45;2.30;;;0.98;;
72575;SDS011;60613;48.658;2.328;2023-04-03T14:09:11;3.55;;;0.90;;
72575;SDS011;60613;48.658;2.328;2023-04-03T14:11:37;2.53;;;0.90;;
72575;SDS011;60613;48.658;2.328;2023-04-03T14:14:14;2.50;;;0.97;;
72575;SDS011;60613;48.658;2.328;2023-04-03T14:16:44;2.45;;;0.85;;
72575;SDS011;60613;48.658;2.328;2023-04-03T14:19:23;1.60;;;0.80;;
72575;SDS011;60613;48.658;2.328;2023-04-03T14:21:51;2.78;;;0.90;;
72575;SDS011;60613;48.658;2.328;2023-04-03T14:24:18;1.95;;;0.90;;
72575;SDS011;60613;48.658;2.328;2023-04-03T14:26:46;2.70;;;0.80;;
72575;SDS011;60613;48.658;2.328;2023-04-03T14:29:12;2.95;;;0.80;;
72575;SDS011;60613;48.658;2.328;2023-04-03T14:31:38;3.30;;;1.00;;
72575;SDS011;60613;48.658;2.328;2023-04-03T14:34:06;2.22;;;0.80;;
72575;SDS011;60613;48.658;2.328;2023-04-03T14:36:31;2.87;;;0.90;;
72575;SDS011;60613;48.658;2.328;2023-04-03T14:38:58;2.83;;;1.00;;
72575;SDS011;60613;48.658;2.328;2023-04-03T14:41:24;2.65;;;1.10;;
72575;SDS011;60613;48.658;2.328;2023-04-03T14:43:51;3.38;;;0.93;;
72575;SDS011;60613;48.658;2.328;2023-04-03T14:46:19;3.78;;;0.82;;
72575;SDS011;60613;48.658;2.328;2023-04-03T14:48:51;2.40;;;0.90;;
72575;SDS011;60613;48.658;2.328;2023-04-03T14:51:17;2.73;;;1.00;;
72575;SDS011;60613;48.658;2.328;2023-04-03T14:53:43;3.03;;;1.10;;
72575;SDS011;60613;48.658;2.328;2023-04-03T14:56:17;2.70;;;1.00;;
72575;SDS011;60613;48.658;2.328;2023-04-03T14:58:47;2.55;;;0.90;;
72575;SDS011;60613;48.658;2.328;2023-04-03T15:01:15;3.40;;;1.13;;
72575;SDS011;60613;48.658;2.328;2023-04-03T15:03:42;3.10;;;0.90;;
72575;SDS011;60613;48.658;2.328;2023-04-03T15:06:09;2.63;;;0.80;;
72575;SDS011;60613;48.658;2.328;2023-04-03T15:08:36;3.42;;;1.00;;
72575;SDS011;60613;48.658;2.328;2023-04-03T15:11:02;3.67;;;1.08;;
72575;SDS011;60613;48.658;2.328;2023-04-03T15:13:28;3.23;;;0.80;;
72575;SDS011;60613;48.658;2.328;2023-04-03T15:15:53;3.03;;;0.90;;
72575;SDS011;60613;48.658;2.328;2023-04-03T15:18:20;3.80;;;1.00;;
72575;SDS011;60613;48.658;2.328;2023-04-03T15:20:48;3.58;;;0.90;;
72575;SDS011;60613;48.658;2.328;2023-04-03T15:23:14;2.45;;;0.80;;
72575;SDS011;60613;48.658;2.328;2023-04-03T15:25:47;2.58;;;0.80;;
72575;SDS011;60613;48.658;2.328;2023-04-03T15:28:33;2.33;;;1.00;;
72575;SDS011;60613;48.658;2.328;2023-04-03T15:31:01;3.20;;;0.80;;
72575;SDS011;60613;48.658;2.328;2023-04-03T15:33:27;3.70;;;0.98;;
72575;SDS011;60613;48.658;2.328;2023-04-03T15:35:53;3.42;;;0.90;;
72575;SDS011;60613;48.658;2.328;2023-04-03T15:38:19;3.45;;;1.08;;
72575;SDS011;60613;48.658;2.328;2023-04-03T15:40:44;2.00;;;0.80;;
72575;SDS011;60613;48.658;2.328;2023-04-03T15:43:12;4.03;;;0.95;;
72575;SDS011;60613;48.658;2.328;2023-04-03T15:45:38;2.55;;;0.90;;
72575;SDS011;60613;48.658;2.328;2023-04-03T15:48:04;2.97;;;1.10;;
72575;SDS011;60613;48.658;2.328;2023-04-03T15:50:31;2.78;;;1.00;;
72575;SDS011;60613;48.658;2.328;2023-04-03T15:52:57;2.67;;;1.00;;
72575;SDS011;60613;48.658;2.328;2023-04-03T15:55:24;2.43;;;0.80;;
72575;SDS011;60613;48.658;2.328;2023-04-03T15:57:51;3.90;;;1.00;;
72575;SDS011;60613;48.658;2.328;2023-04-03T16:00:17;3.47;;;1.00;;
72575;SDS011;60613;48.658;2.328;2023-04-03T16:02:45;3.15;;;0.90;;
72575;SDS011;60613;48.658;2.328;2023-04-03T16:05:12;3.83;;;1.10;;
72575;SDS011;60613;48.658;2.328;2023-04-03T16:07:40;2.67;;;1.00;;
72575;SDS011;60613;48.658;2.328;2023-04-03T16:10:08;2.65;;;1.00;;
72575;SDS011;60613;48.658;2.328;2023-04-03T16:12:35;4.07;;;1.00;;
72575;SDS011;60613;48.658;2.328;2023-04-03T16:15:02;3.17;;;1.15;;
72575;SDS011;60613;48.658;2.328;2023-04-03T16:17:28;3.20;;;1.05;;
72575;SDS011;60613;48.658;2.328;2023-04-03T16:19:55;3.93;;;0.90;;
72575;SDS011;60613;48.658;2.328;2023-04-03T16:22:21;3.10;;;1.10;;
72575;SDS011;60613;48.658;2.328;2023-04-03T16:24:50;2.42;;;0.98;;
72575;SDS011;60613;48.658;2.328;2023-04-03T16:27:16;2.80;;;1.00;;
72575;SDS011;60613;48.658;2.328;2023-04-03T16:29:42;2.80;;;1.08;;
72575;SDS011;60613;48.658;2.328;2023-04-03T16:32:07;3.20;;;1.00;;
72575;SDS011;60613;48.658;2.328;2023-04-03T16:34:33;4.25;;;1.25;;
72575;SDS011;60613;48.658;2.328;2023-04-03T16:36:59;3.03;;;1.00;;
72575;SDS011;60613;48.658;2.328;2023-04-03T16:39:25;3.50;;;1.00;;
72575;SDS011;60613;48.658;2.328;2023-04-03T16:41:51;2.97;;;0.90;;
72575;SDS011;60613;48.658;2.328;2023-04-03T16:44:17;3.67;;;1.10;;
72575;SDS011;60613;48.658;2.328;2023-04-03T16:46:42;2.63;;;1.00;;
72575;SDS011;60613;48.658;2.328;2023-04-03T16:49:08;2.15;;;0.90;;
72575;SDS011;60613;48.658;2.328;2023-04-03T16:51:34;2.83;;;1.10;;
72575;SDS011;60613;48.658;2.328;2023-04-03T16:53:59;1.87;;;1.00;;
72575;SDS011;60613;48.658;2.328;2023-04-03T16:56:25;3.15;;;1.10;;
72575;SDS011;60613;48.658;2.328;2023-04-03T16:58:54;4.47;;;1.10;;
72575;SDS011;60613;48.658;2.328;2023-04-03T17:01:20;3.30;;;1.20;;
72575;SDS011;60613;48.658;2.328;2023-04-03T17:03:47;4.23;;;1.30;;
72575;SDS011;60613;48.658;2.328;2023-04-03T17:06:15;3.42;;;1.30;;
72575;SDS011;60613;48.658;2.328;2023-04-03T17:08:46;4.35;;;1.25;;
72575;SDS011;60613;48.658;2.328;2023-04-03T17:11:13;3.85;;;1.50;;
72575;SDS011;60613;48.658;2.328;2023-04-03T17:13:39;3.85;;;1.40;;
72575;SDS011;60613;48.658;2.328;2023-04-03T17:16:07;4.07;;;1.53;;
72575;SDS011;60613;48.658;2.328;2023-04-03T17:18:35;4.63;;;1.73;;
72575;SDS011;60613;48.658;2.328;2023-04-03T17:21:01;6.35;;;2.40;;
72575;SDS011;60613;48.658;2.328;2023-04-03T17:23:28;5.88;;;2.38;;
72575;SDS011;60613;48.658;2.328;2023-04-03T17:25:54;6.23;;;2.40;;
72575;SDS011;60613;48.658;2.328;2023-04-03T17:28:20;4.70;;;1.80;;
72575;SDS011;60613;48.658;2.328;2023-04-03T17:30:52;6.97;;;2.67;;
72575;SDS011;60613;48.658;2.328;2023-04-03T17:33:19;9.25;;;4.03;;
72575;SDS011;60613;48.658;2.328;2023-04-03T17:35:44;11.43;;;4.73;;
72575;SDS011;60613;48.658;2.328;2023-04-03T17:38:10;13.10;;;5.72;;
72575;SDS011;60613;48.658;2.328;2023-04-03T17:40:35;13.73;;;5.90;;
72575;SDS011;60613;48.658;2.328;2023-04-03T17:43:01;13.37;;;5.67;;
72575;SDS011;60613;48.658;2.328;2023-04-03T17:45:27;16.40;;;6.93;;
72575;SDS011;60613;48.658;2.328;2023-04-03T17:47:52;16.33;;;7.33;;
72575;SDS011;60613;48.658;2.328;2023-04-03T17:50:18;14.65;;;6.38;;
72575;SDS011;60613;48.658;2.328;2023-04-03T17:52:44;17.38;;;8.43;;
72575;SDS011;60613;48.658;2.328;2023-04-03T17:55:10;26.27;;;11.40;;
72575;SDS011;60613;48.658;2.328;2023-04-03T17:57:37;18.67;;;9.07;;
72575;SDS011;60613;48.658;2.328;2023-04-03T18:00:03;22.23;;;10.27;;
72575;SDS011;60613;48.658;2.328;2023-04-03T18:02:29;18.87;;;8.57;;
72575;SDS011;60613;48.658;2.328;2023-04-03T18:04:56;19.75;;;9.30;;
72575;SDS011;60613;48.658;2.328;2023-04-03T18:07:22;21.63;;;9.52;;
72575;SDS011;60613;48.658;2.328;2023-04-03T18:09:48;23.23;;;10.60;;
72575;SDS011;60613;48.658;2.328;2023-04-03T18:12:16;18.23;;;8.60;;
72575;SDS011;60613;48.658;2.328;2023-04-03T18:14:43;23.92;;;10.73;;
72575;SDS011;60613;48.658;2.328;2023-04-03T18:17:10;21.95;;;9.75;;
72575;SDS011;60613;48.658;2.328;2023-04-03T18:19:35;18.88;;;7.78;;
72575;SDS011;60613;48.658;2.328;2023-04-03T18:22:08;18.23;;;7.97;;
72575;SDS011;60613;48.658;2.328;2023-04-03T18:24:38;15.82;;;6.88;;
72575;SDS011;60613;48.658;2.328;2023-04-03T18:27:06;15.23;;;6.65;;
72575;SDS011;60613;48.658;2.328;2023-04-03T18:29:35;13.60;;;6.07;;
72575;SDS011;60613;48.658;2.328;2023-04-03T18:32:03;15.93;;;6.83;;
72575;SDS011;60613;48.658;2.328;2023-04-03T18:34:32;14.43;;;6.63;;
72575;SDS011;60613;48.658;2.328;2023-04-03T18:36:58;14.50;;;6.47;;
72575;SDS011;60613;48.658;2.328;2023-04-03T18:39:24;15.13;;;6.27;;
72575;SDS011;60613;48.658;2.328;2023-04-03T18:41:49;13.48;;;5.90;;
72575;SDS011;60613;48.658;2.328;2023-04-03T18:44:17;13.60;;;5.90;;
72575;SDS011;60613;48.658;2.328;2023-04-03T18:46:45;15.25;;;6.13;;
72575;SDS011;60613;48.658;2.328;2023-04-03T18:49:11;12.57;;;5.73;;
72575;SDS011;60613;48.658;2.328;2023-04-03T18:51:38;11.95;;;5.72;;
72575;SDS011;60613;48.658;2.328;2023-04-03T18:54:05;12.05;;;5.38;;
72575;SDS011;60613;48.658;2.328;2023-04-03T18:56:33;12.35;;;5.30;;
72575;SDS011;60613;48.658;2.328;2023-04-03T18:59:00;11.07;;;5.23;;
